createdAt,value
2022-10-01T00:02:41.777Z,100338.63
2022-10-01T00:05:44.769Z,100328.81
2022-10-01T00:08:49.385Z,100340.06
2022-10-01T00:11:52.611Z,100341.72
2022-10-01T00:14:55.404Z,100333.81
2022-10-01T00:17:57.366Z,100333.75
2022-10-01T00:20:59.062Z,100329.44
2022-10-01T00:24:05.054Z,100325.97
2022-10-01T00:27:10.515Z,100336.31
2022-10-01T00:30:13.201Z,100317.12
2022-10-01T00:33:15.242Z,100308.56
2022-10-01T00:36:16.797Z,100319.00
2022-10-01T00:39:18.607Z,100311.28
2022-10-01T00:42:24.018Z,100311.19
2022-10-01T00:45:25.624Z,100311.13
2022-10-01T00:48:30.662Z,100294.53
2022-10-01T00:51:40.335Z,100287.53
2022-10-01T00:54:49.586Z,100281.53
2022-10-01T00:57:52.516Z,100289.53
2022-10-01T01:00:56.576Z,100298.31
2022-10-01T01:03:58.719Z,100278.19
2022-10-01T01:07:04.455Z,100277.59
2022-10-01T01:10:07.530Z,100282.16
2022-10-01T01:13:09.160Z,100271.56
2022-10-01T01:16:29.518Z,100267.13
2022-10-01T01:19:51.718Z,100257.69
2022-10-01T01:23:15.425Z,100260.38
2022-10-01T01:26:42.301Z,100247.88
2022-10-01T01:29:50.689Z,100238.28
2022-10-01T01:33:03.316Z,100249.53
2022-10-01T01:36:15.748Z,100236.50
2022-10-01T01:39:20.461Z,100251.53
2022-10-01T01:42:29.490Z,100253.38
2022-10-01T01:45:35.864Z,100245.97
2022-10-01T01:48:41.281Z,100254.94
2022-10-01T01:51:51.281Z,100258.69
2022-10-01T01:54:55.155Z,100260.69
2022-10-01T01:57:57.888Z,100260.66
2022-10-01T02:00:59.815Z,100262.97
2022-10-01T02:04:07.648Z,100253.53
2022-10-01T02:07:18.235Z,100259.03
2022-10-01T02:10:52.059Z,100266.91
2022-10-01T02:13:53.664Z,100265.25
2022-10-01T02:17:01.658Z,100279.25
2022-10-01T02:20:18.416Z,100275.88
2022-10-01T02:23:30.315Z,100278.72
2022-10-01T02:26:35.737Z,100282.28
2022-10-01T02:29:39.031Z,100280.50
2022-10-01T02:32:46.454Z,100280.31
2022-10-01T02:35:52.206Z,100281.41
2022-10-01T02:38:56.215Z,100281.47
2022-10-01T02:42:00.768Z,100293.09
2022-10-01T02:45:04.100Z,100303.44
2022-10-01T02:48:11.538Z,100313.03
2022-10-01T02:51:18.924Z,100302.59
2022-10-01T02:54:31.364Z,100307.87
2022-10-01T02:57:33.745Z,100302.78
2022-10-01T03:00:36.326Z,100305.44
2022-10-01T03:03:41.392Z,100295.78
2022-10-01T03:06:43.029Z,100276.50
2022-10-01T03:09:45.037Z,100297.47
2022-10-01T03:12:47.162Z,100291.41
2022-10-01T03:15:48.916Z,100302.13
2022-10-01T03:18:51.163Z,100314.25
2022-10-01T03:21:52.984Z,100335.81
2022-10-01T03:24:54.944Z,100320.47
2022-10-01T03:27:56.872Z,100310.28
2022-10-01T03:31:12.463Z,100303.22
2022-10-01T03:34:14.223Z,100300.69
2022-10-01T03:37:17.197Z,100299.00
2022-10-01T03:40:19.398Z,100288.34
2022-10-01T03:43:21.064Z,100293.59
2022-10-01T03:46:23.059Z,100293.69
2022-10-01T03:49:24.911Z,100292.91
2022-10-01T03:52:26.556Z,100295.59
2022-10-01T03:55:34.524Z,100301.66
2022-10-01T03:58:36.125Z,100298.91
2022-10-01T04:01:39.540Z,100296.38
2022-10-01T04:04:41.578Z,100294.59
2022-10-01T04:07:43.830Z,100310.28
2022-10-01T04:10:45.526Z,100316.62
2022-10-01T04:13:47.570Z,100321.75
2022-10-01T04:16:50.704Z,100325.78
2022-10-01T04:19:52.411Z,100318.06
2022-10-01T04:22:54.352Z,100315.44
2022-10-01T04:26:00.176Z,100315.50
2022-10-01T04:29:02.170Z,100314.69
2022-10-01T04:32:04.174Z,100317.41
2022-10-01T04:35:07.324Z,100314.66
2022-10-01T04:38:17.027Z,100313.81
2022-10-01T04:41:19.061Z,100295.44
2022-10-01T04:44:21.032Z,100298.16
2022-10-01T04:47:23.416Z,100300.88
2022-10-01T04:50:26.951Z,100309.69
2022-10-01T04:53:29.208Z,100308.59
2022-10-01T04:56:30.890Z,100314.06
2022-10-01T04:59:33.437Z,100312.31
2022-10-01T05:02:35.524Z,100314.22
2022-10-01T05:05:37.408Z,100319.38
2022-10-01T05:08:39.288Z,100313.22
2022-10-01T05:11:41.013Z,100307.38
2022-10-01T05:14:48.885Z,100308.06
2022-10-01T05:17:51.575Z,100314.34
2022-10-01T05:20:53.285Z,100324.09
2022-10-01T05:23:55.277Z,100328.16
2022-10-01T05:26:57.949Z,100328.84
2022-10-01T05:29:59.897Z,100315.19
2022-10-01T05:33:05.439Z,100309.41
2022-10-01T05:36:07.215Z,100306.03
2022-10-01T05:39:09.789Z,100299.97
2022-10-01T05:42:12.417Z,100306.69
2022-10-01T05:45:14.085Z,100319.25
2022-10-01T05:48:17.098Z,100331.72
2022-10-01T05:51:19.004Z,100320.44
2022-10-01T05:54:29.816Z,100313.44
2022-10-01T05:57:31.529Z,100325.34
2022-10-01T06:00:34.851Z,100329.09
2022-10-01T06:03:36.958Z,100330.06
2022-10-01T06:06:38.549Z,100326.41
2022-10-01T06:09:40.348Z,100311.19
2022-10-01T06:12:43.354Z,100317.56
2022-10-01T06:15:46.545Z,100325.31
2022-10-01T06:18:49.860Z,100312.88
2022-10-01T06:21:51.943Z,100314.78
2022-10-01T06:24:56.707Z,100311.63
2022-10-01T06:27:59.841Z,100317.53
2022-10-01T06:31:02.776Z,100318.69
2022-10-01T06:34:04.418Z,100326.81
2022-10-01T06:37:13.509Z,100335.28
2022-10-01T06:40:15.240Z,100320.09
2022-10-01T06:43:17.300Z,100322.22
2022-10-01T06:46:19.065Z,100325.09
2022-10-01T06:49:24.105Z,100324.09
2022-10-01T06:52:44.152Z,100334.66
2022-10-01T06:55:46.653Z,100329.50
2022-10-01T06:58:48.368Z,100338.03
2022-10-01T07:01:54.230Z,100329.13
2022-10-01T07:05:01.691Z,100334.34
2022-10-01T07:08:03.631Z,100336.94
2022-10-01T07:11:05.661Z,100330.38
2022-10-01T07:14:08.839Z,100327.81
2022-10-01T07:17:16.627Z,100321.47
2022-10-01T07:20:20.011Z,100319.09
2022-10-01T07:23:24.377Z,100325.94
2022-10-01T07:26:26.332Z,100319.91
2022-10-01T07:29:28.009Z,100317.94
2022-10-01T07:32:32.159Z,100323.00
2022-10-01T07:35:38.003Z,100326.47
2022-10-01T07:38:40.233Z,100342.13
2022-10-01T07:41:42.937Z,100336.69
2022-10-01T07:44:45.928Z,100331.56
2022-10-01T07:47:58.575Z,100329.75
2022-10-01T07:51:00.435Z,100327.41
2022-10-01T07:54:03.544Z,100328.25
2022-10-01T07:57:06.393Z,100317.97
2022-10-01T08:00:08.681Z,100321.16
2022-10-01T08:03:13.103Z,100318.91
2022-10-01T08:06:15.362Z,100317.00
2022-10-01T08:09:17.533Z,100320.31
2022-10-01T08:12:19.705Z,100297.87
2022-10-01T08:15:21.668Z,100296.12
2022-10-01T08:18:24.029Z,100295.44
2022-10-01T08:21:29.608Z,100270.53
2022-10-01T08:24:31.674Z,100277.34
2022-10-01T08:27:33.833Z,100281.72
2022-10-01T08:30:37.452Z,100275.53
2022-10-01T08:33:40.318Z,100283.34
2022-10-01T08:36:42.323Z,100264.22
2022-10-01T08:39:44.027Z,100267.94
2022-10-01T08:43:00.203Z,100282.22
2022-10-01T08:46:06.738Z,100287.72
2022-10-01T08:49:25.872Z,100252.78
2022-10-01T08:52:33.826Z,100233.81
2022-10-01T08:55:37.686Z,100219.97
2022-10-01T08:58:45.379Z,100220.16
2022-10-01T09:01:50.816Z,100209.56
2022-10-01T09:05:01.621Z,100254.47
2022-10-01T09:08:07.035Z,100259.00
2022-10-01T09:11:12.535Z,100248.53
2022-10-01T09:14:16.936Z,100230.13
2022-10-01T09:17:36.132Z,100221.25
2022-10-01T09:20:46.626Z,100224.13
2022-10-01T09:24:04.635Z,100219.59
2022-10-01T09:27:14.278Z,100228.59
2022-10-01T09:30:21.891Z,100215.62
2022-10-01T09:33:31.425Z,100204.13
2022-10-01T09:37:05.617Z,100197.13
2022-10-01T09:40:22.241Z,100196.37
2022-10-01T09:43:28.006Z,100199.03
2022-10-01T09:46:29.801Z,100205.16
2022-10-01T09:49:35.081Z,100196.31
2022-10-01T09:52:39.872Z,100194.62
2022-10-01T09:55:45.925Z,100191.12
2022-10-01T09:59:00.104Z,100183.25
2022-10-01T10:02:04.680Z,100185.03
2022-10-01T10:05:13.547Z,100189.37
2022-10-01T10:08:37.050Z,100183.13
2022-10-01T10:11:42.846Z,100174.16
2022-10-01T10:14:44.970Z,100165.91
2022-10-01T10:17:51.590Z,100157.22
2022-10-01T10:20:54.759Z,100165.47
2022-10-01T10:24:00.326Z,100164.56
2022-10-01T10:27:06.049Z,100165.50
2022-10-01T10:30:17.265Z,100159.34
2022-10-01T10:33:22.069Z,100166.37
2022-10-01T10:36:29.167Z,100165.44
2022-10-01T10:39:36.641Z,100164.53
2022-10-01T10:42:39.009Z,100165.41
2022-10-01T10:45:46.970Z,100173.25
2022-10-01T10:49:00.183Z,100172.41
2022-10-01T10:52:02.458Z,100156.53
2022-10-01T10:55:25.326Z,100146.97
2022-10-01T10:58:29.935Z,100139.91
2022-10-01T11:01:32.302Z,100127.47
2022-10-01T11:04:39.745Z,100118.87
2022-10-01T11:07:45.074Z,100115.47
2022-10-01T11:11:03.264Z,100112.75
2022-10-01T11:14:13.713Z,100105.81
2022-10-01T11:17:15.256Z,100112.72
2022-10-01T11:20:31.194Z,100112.88
2022-10-01T11:24:02.305Z,100104.94
2022-10-01T11:27:16.276Z,100112.88
2022-10-01T11:30:25.937Z,100102.22
2022-10-01T11:33:33.574Z,100095.16
2022-10-01T11:36:50.969Z,100091.78
2022-10-01T11:39:59.594Z,100085.63
2022-10-01T11:43:11.514Z,100078.53
2022-10-01T11:46:42.718Z,100063.44
2022-10-01T11:49:44.643Z,100060.59
2022-10-01T11:53:09.152Z,100053.66
2022-10-01T11:56:43.617Z,100054.47
2022-10-01T12:00:04.333Z,100053.75
2022-10-01T12:03:17.987Z,100048.09
2022-10-01T12:06:26.088Z,100047.16
2022-10-01T12:09:44.705Z,100048.56
2022-10-01T12:13:04.314Z,100045.75
2022-10-01T12:16:24.511Z,100039.63
2022-10-01T12:19:36.858Z,100027.37
2022-10-01T12:22:41.193Z,100033.78
2022-10-01T12:26:05.992Z,100023.94
2022-10-01T12:29:28.997Z,100022.06
2022-10-01T12:32:54.279Z,100025.84
2022-10-01T12:36:11.103Z,100003.47
2022-10-01T12:39:27.092Z,100002.41
2022-10-01T12:42:45.496Z,99999.19
2022-10-01T12:46:02.894Z,99995.59
2022-10-01T12:49:34.884Z,99998.19
2022-10-01T12:53:05.194Z,99990.38
2022-10-01T12:56:17.318Z,99987.72
2022-10-01T12:59:34.125Z,99985.34
2022-10-01T13:02:50.608Z,99986.37
2022-10-01T13:06:07.756Z,99973.97
2022-10-01T13:09:14.900Z,99969.56
2022-10-01T13:12:16.455Z,99970.97
2022-10-01T13:15:35.152Z,99956.59
2022-10-01T13:18:40.958Z,99963.28
2022-10-01T13:21:42.860Z,99954.87
2022-10-01T13:25:06.660Z,99951.78
2022-10-01T13:28:24.968Z,99941.19
2022-10-01T13:31:37.348Z,99943.13
2022-10-01T13:34:41.922Z,99953.03
2022-10-01T13:37:43.846Z,99957.91
2022-10-01T13:40:57.865Z,99950.19
2022-10-01T13:44:21.340Z,99958.19
2022-10-01T13:47:23.760Z,99943.75
2022-10-01T13:50:25.735Z,99952.34
2022-10-01T13:53:28.195Z,99956.66
2022-10-01T13:56:35.371Z,99939.50
2022-10-01T13:59:38.992Z,99925.25
2022-10-01T14:02:57.653Z,99914.03
2022-10-01T14:06:02.687Z,99912.69
2022-10-01T14:09:10.165Z,99903.00
2022-10-01T14:12:40.764Z,99902.31
2022-10-01T14:15:59.796Z,99891.78
2022-10-01T14:19:02.526Z,99892.69
2022-10-01T14:22:07.224Z,99893.66
2022-10-01T14:25:29.997Z,99895.53
2022-10-01T14:28:41.028Z,99880.78
2022-10-01T14:32:12.521Z,99880.63
2022-10-01T14:35:30.496Z,99875.28
2022-10-01T14:38:32.529Z,99866.88
2022-10-01T14:41:35.488Z,99852.78
2022-10-01T14:44:40.107Z,99845.84
2022-10-01T14:47:41.972Z,99851.63
2022-10-01T14:50:49.559Z,99836.56
2022-10-01T14:53:52.805Z,99836.84
2022-10-01T14:56:55.230Z,99829.59
2022-10-01T15:00:00.638Z,99828.66
2022-10-01T15:03:18.235Z,99823.22
2022-10-01T15:06:24.039Z,99820.56
2022-10-01T15:09:33.928Z,99821.56
2022-10-01T15:12:40.907Z,99816.59
2022-10-01T15:15:43.240Z,99820.84
2022-10-01T15:18:58.732Z,99807.50
2022-10-01T15:22:02.654Z,99806.09
2022-10-01T15:25:04.924Z,99793.28
2022-10-01T15:28:26.891Z,99797.75
2022-10-01T15:31:29.171Z,99789.13
2022-10-01T15:34:32.130Z,99781.38
2022-10-01T15:37:36.399Z,99765.72
2022-10-01T15:40:42.719Z,99763.88
2022-10-01T15:43:45.487Z,99759.88
2022-10-01T15:46:47.355Z,99756.44
2022-10-01T15:50:10.779Z,99773.19
2022-10-01T15:53:21.714Z,99771.50
2022-10-01T15:56:25.117Z,99762.81
2022-10-01T15:59:26.932Z,99768.94
2022-10-01T16:02:31.447Z,99764.56
2022-10-01T16:05:44.899Z,99770.75
2022-10-01T16:09:00.191Z,99766.47
2022-10-01T16:12:21.261Z,99765.63
2022-10-01T16:15:31.036Z,99756.75
2022-10-01T16:18:35.073Z,99759.38
2022-10-01T16:22:15.856Z,99772.69
2022-10-01T16:25:23.818Z,99763.97
2022-10-01T16:28:33.294Z,99769.28
2022-10-01T16:31:36.938Z,99774.53
2022-10-01T16:34:39.042Z,99771.97
2022-10-01T16:37:40.646Z,99792.25
2022-10-01T16:40:44.637Z,99803.84
2022-10-01T16:43:46.416Z,99795.28
2022-10-01T16:46:48.580Z,99812.03
2022-10-01T16:49:52.640Z,99822.62
2022-10-01T16:52:56.506Z,99824.41
2022-10-01T16:55:58.476Z,99833.19
2022-10-01T16:59:00.474Z,99835.81
2022-10-01T17:02:02.733Z,99844.59
2022-10-01T17:05:05.227Z,99854.22
2022-10-01T17:08:12.577Z,99856.00
2022-10-01T17:11:14.116Z,99851.59
2022-10-01T17:14:18.915Z,99853.34
2022-10-01T17:17:20.857Z,99848.13
2022-10-01T17:20:24.419Z,99848.97
2022-10-01T17:23:26.508Z,99844.59
2022-10-01T17:26:29.219Z,99848.97
2022-10-01T17:29:32.351Z,99844.56
2022-10-01T17:32:36.288Z,99847.19
2022-10-01T17:35:44.107Z,99844.53
2022-10-01T17:38:46.150Z,99848.03
2022-10-01T17:41:48.218Z,99843.59
2022-10-01T17:44:49.954Z,99838.28
2022-10-01T17:47:51.929Z,99851.41
2022-10-01T17:51:03.623Z,99858.47
2022-10-01T17:54:05.842Z,99855.84
2022-10-01T17:57:10.849Z,99862.81
2022-10-01T18:00:15.991Z,99868.91
2022-10-01T18:03:18.309Z,99873.25
2022-10-01T18:06:25.488Z,99872.34
2022-10-01T18:09:27.409Z,99869.72
2022-10-01T18:12:29.155Z,99870.63
2022-10-01T18:15:31.257Z,99878.44
2022-10-01T18:19:51.739Z,99877.56
2022-10-01T18:21:59.243Z,99874.06
2022-10-01T18:25:00.959Z,99867.03
2022-10-01T18:28:02.885Z,99882.78
2022-10-01T18:31:13.745Z,99878.34
2022-10-01T18:34:24.640Z,99875.75
2022-10-01T18:37:39.987Z,99887.97
2022-10-01T18:40:43.704Z,99896.69
2022-10-01T18:43:46.631Z,99904.50
2022-10-01T18:47:02.381Z,99918.41
2022-10-01T18:50:21.175Z,99922.03
2022-10-01T18:53:34.782Z,99933.34
2022-10-01T18:56:39.186Z,99925.37
2022-10-01T19:00:08.637Z,99919.34
2022-10-01T19:03:37.126Z,99921.94
2022-10-01T19:06:44.669Z,99935.91
2022-10-01T19:09:53.063Z,99951.66
2022-10-01T19:13:06.510Z,99955.16
2022-10-01T19:16:26.326Z,99949.63
2022-10-01T19:19:34.953Z,99962.06
2022-10-01T19:23:17.241Z,99959.50
2022-10-01T19:26:44.630Z,99960.38
2022-10-01T19:29:55.008Z,99955.91
2022-10-01T19:33:03.197Z,99962.87
2022-10-01T19:36:06.842Z,99964.47
2022-10-01T19:39:16.379Z,99969.69
2022-10-01T19:42:27.400Z,99959.25
2022-10-01T19:45:50.856Z,99967.19
2022-10-01T19:49:08.577Z,99979.41
2022-10-01T19:52:13.661Z,99978.50
2022-10-01T19:55:20.698Z,99981.22
2022-10-01T19:58:24.666Z,99981.91
2022-10-01T20:02:02.642Z,99973.25
2022-10-01T20:05:06.630Z,99980.00
2022-10-01T20:08:33.167Z,99987.94
2022-10-01T20:12:13.201Z,99989.56
2022-10-01T20:15:45.468Z,99997.50
2022-10-01T20:18:50.173Z,99993.97
2022-10-01T20:22:26.376Z,100001.91
2022-10-01T20:25:55.974Z,100007.00
2022-10-01T20:29:18.412Z,100003.41
2022-10-01T20:32:29.719Z,100007.03
2022-10-01T20:36:08.245Z,100008.62
2022-10-01T20:39:19.659Z,100019.06
2022-10-01T20:42:33.830Z,100014.59
2022-10-01T20:45:40.774Z,100022.59
2022-10-01T20:48:47.899Z,100013.56
2022-10-01T20:52:00.436Z,100024.13
2022-10-01T20:55:14.264Z,100013.53
2022-10-01T20:58:21.514Z,100013.47
2022-10-01T21:01:26.143Z,100020.37
2022-10-01T21:04:35.351Z,100030.66
2022-10-01T21:07:52.151Z,100038.69
2022-10-01T21:11:02.357Z,100037.09
2022-10-01T21:14:26.260Z,100033.81
2022-10-01T21:18:06.082Z,100033.56
2022-10-01T21:21:32.132Z,100042.03
2022-10-01T21:25:14.120Z,100056.00
2022-10-01T21:28:42.360Z,100062.09
2022-10-01T21:32:14.694Z,100064.56
2022-10-01T21:35:32.333Z,100060.31
2022-10-01T21:38:58.701Z,100056.00
2022-10-01T21:42:19.872Z,100054.16
2022-10-01T21:45:53.977Z,100057.78
2022-10-01T21:48:58.468Z,100054.34
2022-10-01T21:52:11.251Z,100058.50
2022-10-01T21:55:44.006Z,100061.28
2022-10-01T21:59:17.178Z,100066.56
2022-10-01T22:02:40.144Z,100064.78
2022-10-01T22:05:57.208Z,100069.09
2022-10-01T22:09:16.327Z,100074.37
2022-10-01T22:12:20.584Z,100070.75
2022-10-01T22:15:28.590Z,100073.44
2022-10-01T22:19:12.308Z,100076.22
2022-10-01T22:22:48.672Z,100080.28
2022-10-01T22:25:58.391Z,100086.28
2022-10-01T22:29:03.020Z,100099.88
2022-10-01T22:32:13.153Z,100096.34
2022-10-01T22:35:20.659Z,100092.78
2022-10-01T22:38:48.167Z,100093.72
2022-10-01T22:41:56.588Z,100089.31
2022-10-01T22:45:15.557Z,100098.84
2022-10-01T22:48:36.655Z,100097.06
2022-10-01T22:52:20.331Z,100087.25
2022-10-01T22:55:33.021Z,100091.75
2022-10-01T22:59:10.466Z,100088.19
2022-10-01T23:02:14.983Z,100101.22
2022-10-01T23:05:41.521Z,100096.59
2022-10-01T23:08:54.852Z,100099.28
2022-10-01T23:12:03.905Z,100102.50
2022-10-01T23:15:40.911Z,100106.00
2022-10-01T23:18:54.440Z,100094.69
2022-10-01T23:22:19.711Z,100096.97
2022-10-01T23:25:33.331Z,100107.50
2022-10-01T23:28:53.809Z,100111.06
2022-10-01T23:32:13.553Z,100129.03
2022-10-01T23:35:19.750Z,100145.44
2022-10-01T23:38:33.453Z,100139.31
2022-10-01T23:41:41.634Z,100136.50
2022-10-01T23:44:50.123Z,100138.44
2022-10-01T23:48:00.095Z,100147.94
2022-10-01T23:51:01.751Z,100151.50
2022-10-01T23:54:27.385Z,100151.44
2022-10-01T23:57:34.064Z,100150.44
